Aviation Digital Data Service (ADDS)

Output produced by METARs form (1228 UTC 16 July 2019)
found at http://www.aviationweather.gov/metar/data/
 
TAF EDDF 161100Z 1612/1718 30007KT 9999 FEW040 
     BECMG 1618/1621 02007KT 
     TEMPO 1622/1705 VRB03KT